< < Back
Terminal Aerodrome Forecast


Current Version              Previous Versions:   1  2  3  4  5  6  7  8  9  

Terminal Aerodrome Forecast

142
FTUS42 KFFC 272220 AAA
TAFFTY
TAF AMD
KFTY 272220Z 2722/2818 07007KT P6SM SCT050
     FM280000 06005KT P6SM FEW050
     FM280900 08004KT P6SM BKN012
     FM281400 08008KT P6SM BKN020
     FM281700 10010KT P6SM BKN035=

Latest METAR

302
SAUS70 KWBC 280200 RRB
MTRFTY
METAR KFTY 280153Z 00000KT 10SM CLR 23/18 A3007 RMK AO2 SLP172
T02280183


USA.gov is the U.S. government's official web portal to all federal, state and local government web resources and services.